sensor_id;sensor_type;location;lat;lon;timestamp;temperature;humidity
38090;DHT22;23904;52.322;10.232;2024-03-02T00:01:07;9.70;99.90
38090;DHT22;23904;52.322;10.232;2024-03-02T00:03:32;9.70;99.90
38090;DHT22;23904;52.322;10.232;2024-03-02T00:05:59;9.80;99.90
38090;DHT22;23904;52.322;10.232;2024-03-02T00:08:25;9.80;99.90
38090;DHT22;23904;52.322;10.232;2024-03-02T00:10:51;9.80;99.90
38090;DHT22;23904;52.322;10.232;2024-03-02T00:13:20;9.80;99.90
38090;DHT22;23904;52.322;10.232;2024-03-02T00:15:52;9.80;99.90
38090;DHT22;23904;52.322;10.232;2024-03-02T00:18:21;9.80;99.90
38090;DHT22;23904;52.322;10.232;2024-03-02T00:20:55;9.80;99.90
38090;DHT22;23904;52.322;10.232;2024-03-02T00:23:22;9.70;99.90
38090;DHT22;23904;52.322;10.232;2024-03-02T00:25:53;9.70;99.90
38090;DHT22;23904;52.322;10.232;2024-03-02T00:28:33;9.70;99.90
38090;DHT22;23904;52.322;10.232;2024-03-02T00:31:08;9.70;99.90
38090;DHT22;23904;52.322;10.232;2024-03-02T00:33:47;9.70;99.90
38090;DHT22;23904;52.322;10.232;2024-03-02T00:36:22;9.70;99.90
38090;DHT22;23904;52.322;10.232;2024-03-02T00:38:49;9.70;99.90
38090;DHT22;23904;52.322;10.232;2024-03-02T00:41:30;9.60;99.90
38090;DHT22;23904;52.322;10.232;2024-03-02T00:44:03;9.60;99.90
38090;DHT22;23904;52.322;10.232;2024-03-02T00:46:34;9.50;99.90
38090;DHT22;23904;52.322;10.232;2024-03-02T00:49:05;9.40;99.90
38090;DHT22;23904;52.322;10.232;2024-03-02T00:51:48;9.40;99.90
38090;DHT22;23904;52.322;10.232;2024-03-02T00:54:15;9.40;99.90
38090;DHT22;23904;52.322;10.232;2024-03-02T00:56:44;9.40;99.90
38090;DHT22;23904;52.322;10.232;2024-03-02T00:59:10;9.30;99.90
38090;DHT22;23904;52.322;10.232;2024-03-02T01:01:36;9.20;99.90
38090;DHT22;23904;52.322;10.232;2024-03-02T01:04:02;9.20;99.90
38090;DHT22;23904;52.322;10.232;2024-03-02T01:06:27;9.20;99.90
38090;DHT22;23904;52.322;10.232;2024-03-02T01:08:53;9.20;99.90
38090;DHT22;23904;52.322;10.232;2024-03-02T01:11:18;9.10;99.90
38090;DHT22;23904;52.322;10.232;2024-03-02T01:13:46;9.10;99.90
38090;DHT22;23904;52.322;10.232;2024-03-02T01:16:12;9.20;99.90
38090;DHT22;23904;52.322;10.232;2024-03-02T01:18:37;9.20;99.90
38090;DHT22;23904;52.322;10.232;2024-03-02T01:21:03;9.20;99.90
38090;DHT22;23904;52.322;10.232;2024-03-02T01:23:29;9.20;99.90
38090;DHT22;23904;52.322;10.232;2024-03-02T01:25:54;9.10;99.90
38090;DHT22;23904;52.322;10.232;2024-03-02T01:28:20;9.20;99.90
38090;DHT22;23904;52.322;10.232;2024-03-02T01:30:46;9.20;99.90
38090;DHT22;23904;52.322;10.232;2024-03-02T01:33:12;9.30;99.90
38090;DHT22;23904;52.322;10.232;2024-03-02T01:35:37;9.30;99.90
38090;DHT22;23904;52.322;10.232;2024-03-02T01:38:03;9.30;99.90
38090;DHT22;23904;52.322;10.232;2024-03-02T01:40:34;9.30;99.90
38090;DHT22;23904;52.322;10.232;2024-03-02T01:43:00;9.30;99.90
38090;DHT22;23904;52.322;10.232;2024-03-02T01:45:25;9.30;99.90
38090;DHT22;23904;52.322;10.232;2024-03-02T01:47:52;9.30;99.90
38090;DHT22;23904;52.322;10.232;2024-03-02T01:50:25;9.30;99.90
38090;DHT22;23904;52.322;10.232;2024-03-02T01:52:58;9.30;99.90
38090;DHT22;23904;52.322;10.232;2024-03-02T01:55:24;9.30;99.90
38090;DHT22;23904;52.322;10.232;2024-03-02T01:57:51;9.30;99.90
38090;DHT22;23904;52.322;10.232;2024-03-02T02:00:18;9.30;99.90
38090;DHT22;23904;52.322;10.232;2024-03-02T02:02:48;9.20;99.90
38090;DHT22;23904;52.322;10.232;2024-03-02T02:05:14;9.20;99.90
38090;DHT22;23904;52.322;10.232;2024-03-02T02:07:41;9.20;99.90
38090;DHT22;23904;52.322;10.232;2024-03-02T02:10:07;9.20;99.90
38090;DHT22;23904;52.322;10.232;2024-03-02T02:12:33;9.20;99.90
38090;DHT22;23904;52.322;10.232;2024-03-02T02:14:59;9.20;99.90
38090;DHT22;23904;52.322;10.232;2024-03-02T02:17:24;9.20;99.90
38090;DHT22;23904;52.322;10.232;2024-03-02T02:19:50;9.20;99.90
38090;DHT22;23904;52.322;10.232;2024-03-02T02:22:15;9.10;99.90
38090;DHT22;23904;52.322;10.232;2024-03-02T02:24:41;9.10;99.90
38090;DHT22;23904;52.322;10.232;2024-03-02T02:27:08;9.10;99.90
38090;DHT22;23904;52.322;10.232;2024-03-02T02:29:35;9.10;99.90
38090;DHT22;23904;52.322;10.232;2024-03-02T02:32:01;9.10;99.90
38090;DHT22;23904;52.322;10.232;2024-03-02T02:34:26;9.10;99.90
38090;DHT22;23904;52.322;10.232;2024-03-02T02:36:52;9.10;99.90
38090;DHT22;23904;52.322;10.232;2024-03-02T02:39:20;9.10;99.90
38090;DHT22;23904;52.322;10.232;2024-03-02T02:41:47;9.10;99.90
38090;DHT22;23904;52.322;10.232;2024-03-02T02:44:13;9.10;99.90
38090;DHT22;23904;52.322;10.232;2024-03-02T02:46:40;9.10;99.90
38090;DHT22;23904;52.322;10.232;2024-03-02T02:49:05;9.20;99.90
38090;DHT22;23904;52.322;10.232;2024-03-02T02:51:31;9.20;99.90
38090;DHT22;23904;52.322;10.232;2024-03-02T02:53:57;9.20;99.90
38090;DHT22;23904;52.322;10.232;2024-03-02T02:56:22;9.20;99.90
38090;DHT22;23904;52.322;10.232;2024-03-02T02:58:48;9.30;99.90
38090;DHT22;23904;52.322;10.232;2024-03-02T03:01:15;9.30;99.90
38090;DHT22;23904;52.322;10.232;2024-03-02T03:03:44;9.30;99.90
38090;DHT22;23904;52.322;10.232;2024-03-02T03:06:11;9.20;99.90
38090;DHT22;23904;52.322;10.232;2024-03-02T03:08:37;9.30;99.90
38090;DHT22;23904;52.322;10.232;2024-03-02T03:11:03;9.20;99.90
38090;DHT22;23904;52.322;10.232;2024-03-02T03:13:33;9.30;99.90
38090;DHT22;23904;52.322;10.232;2024-03-02T03:15:59;9.40;99.90
38090;DHT22;23904;52.322;10.232;2024-03-02T03:18:25;9.40;99.90
38090;DHT22;23904;52.322;10.232;2024-03-02T03:20:50;9.30;99.90
38090;DHT22;23904;52.322;10.232;2024-03-02T03:23:16;9.30;99.90
38090;DHT22;23904;52.322;10.232;2024-03-02T03:25:42;9.20;99.90
38090;DHT22;23904;52.322;10.232;2024-03-02T03:28:08;9.20;99.90
38090;DHT22;23904;52.322;10.232;2024-03-02T03:30:37;9.20;99.90
38090;DHT22;23904;52.322;10.232;2024-03-02T03:33:03;9.20;99.90
38090;DHT22;23904;52.322;10.232;2024-03-02T03:35:31;9.20;99.90
38090;DHT22;23904;52.322;10.232;2024-03-02T03:37:57;9.10;99.90
38090;DHT22;23904;52.322;10.232;2024-03-02T03:40:22;9.10;99.90
38090;DHT22;23904;52.322;10.232;2024-03-02T03:42:48;9.10;99.90
38090;DHT22;23904;52.322;10.232;2024-03-02T03:45:15;9.10;99.90
38090;DHT22;23904;52.322;10.232;2024-03-02T03:47:41;9.10;99.90
38090;DHT22;23904;52.322;10.232;2024-03-02T03:50:07;9.10;99.90
38090;DHT22;23904;52.322;10.232;2024-03-02T03:52:33;9.20;99.90
38090;DHT22;23904;52.322;10.232;2024-03-02T03:54:58;9.20;99.90
38090;DHT22;23904;52.322;10.232;2024-03-02T03:57:25;9.20;99.90
38090;DHT22;23904;52.322;10.232;2024-03-02T03:59:51;9.20;99.90
38090;DHT22;23904;52.322;10.232;2024-03-02T04:02:17;9.10;99.90
38090;DHT22;23904;52.322;10.232;2024-03-02T04:04:42;9.10;99.90
38090;DHT22;23904;52.322;10.232;2024-03-02T04:07:08;9.00;99.90
38090;DHT22;23904;52.322;10.232;2024-03-02T04:09:34;9.00;99.90
38090;DHT22;23904;52.322;10.232;2024-03-02T04:11:59;9.00;99.90
38090;DHT22;23904;52.322;10.232;2024-03-02T04:14:25;8.90;99.90
38090;DHT22;23904;52.322;10.232;2024-03-02T04:16:50;8.90;99.90
38090;DHT22;23904;52.322;10.232;2024-03-02T04:19:16;8.90;99.90
38090;DHT22;23904;52.322;10.232;2024-03-02T04:21:42;8.90;99.90
38090;DHT22;23904;52.322;10.232;2024-03-02T04:24:07;8.90;99.90
38090;DHT22;23904;52.322;10.232;2024-03-02T04:26:33;8.80;99.90
38090;DHT22;23904;52.322;10.232;2024-03-02T04:28:59;8.80;99.90
38090;DHT22;23904;52.322;10.232;2024-03-02T04:31:24;8.80;99.90
38090;DHT22;23904;52.322;10.232;2024-03-02T04:33:50;8.80;99.90
38090;DHT22;23904;52.322;10.232;2024-03-02T04:36:15;8.80;99.90
38090;DHT22;23904;52.322;10.232;2024-03-02T04:38:41;8.80;99.90
38090;DHT22;23904;52.322;10.232;2024-03-02T04:41:07;8.90;99.90
38090;DHT22;23904;52.322;10.232;2024-03-02T04:43:33;8.80;99.90
38090;DHT22;23904;52.322;10.232;2024-03-02T04:45:59;8.80;99.90
38090;DHT22;23904;52.322;10.232;2024-03-02T04:48:25;8.90;99.90
38090;DHT22;23904;52.322;10.232;2024-03-02T04:50:51;8.90;99.90
38090;DHT22;23904;52.322;10.232;2024-03-02T04:53:16;9.00;99.90
38090;DHT22;23904;52.322;10.232;2024-03-02T04:55:42;9.00;99.90
38090;DHT22;23904;52.322;10.232;2024-03-02T04:58:07;9.10;99.90
38090;DHT22;23904;52.322;10.232;2024-03-02T05:00:33;9.20;99.90
38090;DHT22;23904;52.322;10.232;2024-03-02T05:02:59;9.20;99.90
38090;DHT22;23904;52.322;10.232;2024-03-02T05:05:25;9.20;99.90
38090;DHT22;23904;52.322;10.232;2024-03-02T05:07:51;9.10;99.90
38090;DHT22;23904;52.322;10.232;2024-03-02T05:10:17;9.00;99.90
38090;DHT22;23904;52.322;10.232;2024-03-02T05:12:42;9.00;99.90
38090;DHT22;23904;52.322;10.232;2024-03-02T05:15:09;8.90;99.90
38090;DHT22;23904;52.322;10.232;2024-03-02T05:17:39;8.90;99.90
38090;DHT22;23904;52.322;10.232;2024-03-02T05:20:06;8.90;99.90
38090;DHT22;23904;52.322;10.232;2024-03-02T05:22:36;8.90;99.90
38090;DHT22;23904;52.322;10.232;2024-03-02T05:25:03;8.80;99.90
38090;DHT22;23904;52.322;10.232;2024-03-02T05:27:29;8.80;99.90
38090;DHT22;23904;52.322;10.232;2024-03-02T05:29:55;8.80;99.90
38090;DHT22;23904;52.322;10.232;2024-03-02T05:32:21;8.70;99.90
38090;DHT22;23904;52.322;10.232;2024-03-02T05:34:47;8.60;99.90
38090;DHT22;23904;52.322;10.232;2024-03-02T05:37:12;8.60;99.90
38090;DHT22;23904;52.322;10.232;2024-03-02T05:39:38;8.60;99.90
38090;DHT22;23904;52.322;10.232;2024-03-02T05:42:03;8.60;99.90
38090;DHT22;23904;52.322;10.232;2024-03-02T05:44:29;8.60;99.90
38090;DHT22;23904;52.322;10.232;2024-03-02T05:46:55;8.60;99.90
38090;DHT22;23904;52.322;10.232;2024-03-02T05:49:21;8.60;99.90
38090;DHT22;23904;52.322;10.232;2024-03-02T05:51:47;8.60;99.90
38090;DHT22;23904;52.322;10.232;2024-03-02T05:54:13;8.50;99.90
38090;DHT22;23904;52.322;10.232;2024-03-02T05:56:38;8.40;99.90
38090;DHT22;23904;52.322;10.232;2024-03-02T05:59:04;8.40;99.90
38090;DHT22;23904;52.322;10.232;2024-03-02T06:01:39;8.30;99.90
38090;DHT22;23904;52.322;10.232;2024-03-02T06:04:06;8.20;99.90
38090;DHT22;23904;52.322;10.232;2024-03-02T06:06:32;8.10;99.90
38090;DHT22;23904;52.322;10.232;2024-03-02T06:09:00;8.10;99.90
38090;DHT22;23904;52.322;10.232;2024-03-02T06:11:36;8.00;99.90
38090;DHT22;23904;52.322;10.232;2024-03-02T06:14:03;8.00;99.90
38090;DHT22;23904;52.322;10.232;2024-03-02T06:16:29;7.90;99.90
38090;DHT22;23904;52.322;10.232;2024-03-02T06:18:55;7.80;99.90
38090;DHT22;23904;52.322;10.232;2024-03-02T06:21:23;7.80;99.90
38090;DHT22;23904;52.322;10.232;2024-03-02T06:23:49;7.80;99.90
38090;DHT22;23904;52.322;10.232;2024-03-02T06:26:15;7.80;99.90
38090;DHT22;23904;52.322;10.232;2024-03-02T06:28:40;7.80;99.90
38090;DHT22;23904;52.322;10.232;2024-03-02T06:31:06;7.80;99.90
38090;DHT22;23904;52.322;10.232;2024-03-02T06:33:32;7.70;99.90
38090;DHT22;23904;52.322;10.232;2024-03-02T06:35:57;7.70;99.90
38090;DHT22;23904;52.322;10.232;2024-03-02T06:38:23;7.60;99.90
38090;DHT22;23904;52.322;10.232;2024-03-02T06:40:48;7.60;99.90
38090;DHT22;23904;52.322;10.232;2024-03-02T06:43:14;7.70;99.90
38090;DHT22;23904;52.322;10.232;2024-03-02T06:45:39;7.70;99.90
38090;DHT22;23904;52.322;10.232;2024-03-02T06:48:05;7.80;99.90
38090;DHT22;23904;52.322;10.232;2024-03-02T06:50:31;7.80;99.90
38090;DHT22;23904;52.322;10.232;2024-03-02T06:52:56;7.90;99.90
38090;DHT22;23904;52.322;10.232;2024-03-02T06:55:22;8.00;99.90
38090;DHT22;23904;52.322;10.232;2024-03-02T06:57:49;8.00;99.90
38090;DHT22;23904;52.322;10.232;2024-03-02T07:00:16;8.10;99.90
38090;DHT22;23904;52.322;10.232;2024-03-02T07:02:43;8.10;99.90
38090;DHT22;23904;52.322;10.232;2024-03-02T07:05:10;8.20;99.90
38090;DHT22;23904;52.322;10.232;2024-03-02T07:07:36;8.20;99.90
38090;DHT22;23904;52.322;10.232;2024-03-02T07:10:03;8.30;99.90
38090;DHT22;23904;52.322;10.232;2024-03-02T07:12:29;8.30;99.90
38090;DHT22;23904;52.322;10.232;2024-03-02T07:14:55;8.30;99.90
38090;DHT22;23904;52.322;10.232;2024-03-02T07:17:36;8.20;99.90
38090;DHT22;23904;52.322;10.232;2024-03-02T07:20:02;8.20;99.90
38090;DHT22;23904;52.322;10.232;2024-03-02T07:22:29;8.20;99.90
38090;DHT22;23904;52.322;10.232;2024-03-02T07:24:55;8.10;99.90
38090;DHT22;23904;52.322;10.232;2024-03-02T07:27:21;8.20;99.90
38090;DHT22;23904;52.322;10.232;2024-03-02T07:29:46;8.20;99.90
38090;DHT22;23904;52.322;10.232;2024-03-02T07:32:12;8.30;99.90
38090;DHT22;23904;52.322;10.232;2024-03-02T07:34:37;8.30;99.90
38090;DHT22;23904;52.322;10.232;2024-03-02T07:37:03;8.40;99.90
38090;DHT22;23904;52.322;10.232;2024-03-02T07:39:29;8.50;99.90
38090;DHT22;23904;52.322;10.232;2024-03-02T07:41:55;8.70;99.90
38090;DHT22;23904;52.322;10.232;2024-03-02T07:44:21;8.80;99.90
38090;DHT22;23904;52.322;10.232;2024-03-02T07:46:47;8.90;99.90
38090;DHT22;23904;52.322;10.232;2024-03-02T07:49:15;9.20;99.90
38090;DHT22;23904;52.322;10.232;2024-03-02T07:51:42;9.40;99.90
38090;DHT22;23904;52.322;10.232;2024-03-02T07:54:08;9.50;99.90
38090;DHT22;23904;52.322;10.232;2024-03-02T07:56:34;9.60;99.90
38090;DHT22;23904;52.322;10.232;2024-03-02T07:59:00;9.60;99.90
38090;DHT22;23904;52.322;10.232;2024-03-02T08:01:27;9.70;99.90
38090;DHT22;23904;52.322;10.232;2024-03-02T08:03:56;9.60;99.90
38090;DHT22;23904;52.322;10.232;2024-03-02T08:06:24;9.60;99.90
38090;DHT22;23904;52.322;10.232;2024-03-02T08:08:56;9.50;99.90
38090;DHT22;23904;52.322;10.232;2024-03-02T08:11:22;9.50;99.90
38090;DHT22;23904;52.322;10.232;2024-03-02T08:13:48;9.50;99.90
38090;DHT22;23904;52.322;10.232;2024-03-02T08:16:17;9.40;99.90
38090;DHT22;23904;52.322;10.232;2024-03-02T08:18:47;9.40;99.90
38090;DHT22;23904;52.322;10.232;2024-03-02T08:21:13;9.40;99.90
38090;DHT22;23904;52.322;10.232;2024-03-02T08:23:39;9.40;99.90
38090;DHT22;23904;52.322;10.232;2024-03-02T08:26:06;9.50;99.90
38090;DHT22;23904;52.322;10.232;2024-03-02T08:28:32;9.50;99.90
38090;DHT22;23904;52.322;10.232;2024-03-02T08:30:58;9.60;99.90
38090;DHT22;23904;52.322;10.232;2024-03-02T08:33:24;9.70;99.90
38090;DHT22;23904;52.322;10.232;2024-03-02T08:35:50;9.80;99.90
38090;DHT22;23904;52.322;10.232;2024-03-02T08:38:15;9.80;99.90
38090;DHT22;23904;52.322;10.232;2024-03-02T08:40:41;9.90;99.90
38090;DHT22;23904;52.322;10.232;2024-03-02T08:43:07;10.00;99.90
38090;DHT22;23904;52.322;10.232;2024-03-02T08:45:32;10.10;99.90
38090;DHT22;23904;52.322;10.232;2024-03-02T08:48:00;10.20;99.90
38090;DHT22;23904;52.322;10.232;2024-03-02T08:50:26;10.10;99.90
38090;DHT22;23904;52.322;10.232;2024-03-02T08:52:51;10.20;99.90
38090;DHT22;23904;52.322;10.232;2024-03-02T08:55:17;10.30;99.90
38090;DHT22;23904;52.322;10.232;2024-03-02T08:57:42;10.40;99.90
38090;DHT22;23904;52.322;10.232;2024-03-02T09:00:09;10.50;99.90
38090;DHT22;23904;52.322;10.232;2024-03-02T09:02:35;10.60;99.90
38090;DHT22;23904;52.322;10.232;2024-03-02T09:05:01;10.80;99.90
38090;DHT22;23904;52.322;10.232;2024-03-02T09:07:26;10.90;99.90
38090;DHT22;23904;52.322;10.232;2024-03-02T09:09:52;11.00;99.90
38090;DHT22;23904;52.322;10.232;2024-03-02T09:12:18;11.10;99.90
38090;DHT22;23904;52.322;10.232;2024-03-02T09:14:44;11.40;99.90
38090;DHT22;23904;52.322;10.232;2024-03-02T09:17:10;11.80;99.90
38090;DHT22;23904;52.322;10.232;2024-03-02T09:19:37;12.00;99.90
38090;DHT22;23904;52.322;10.232;2024-03-02T09:22:03;12.30;99.90
38090;DHT22;23904;52.322;10.232;2024-03-02T09:24:31;12.60;99.90
38090;DHT22;23904;52.322;10.232;2024-03-02T09:26:58;12.90;99.90
38090;DHT22;23904;52.322;10.232;2024-03-02T09:29:24;13.00;99.90
38090;DHT22;23904;52.322;10.232;2024-03-02T09:31:49;13.40;99.90
38090;DHT22;23904;52.322;10.232;2024-03-02T09:34:16;13.40;99.90
38090;DHT22;23904;52.322;10.232;2024-03-02T09:36:42;13.80;99.90
38090;DHT22;23904;52.322;10.232;2024-03-02T09:39:08;14.10;99.90
38090;DHT22;23904;52.322;10.232;2024-03-02T09:41:36;14.00;99.90
38090;DHT22;23904;52.322;10.232;2024-03-02T09:44:02;14.10;99.90
38090;DHT22;23904;52.322;10.232;2024-03-02T09:46:28;14.10;99.90
38090;DHT22;23904;52.322;10.232;2024-03-02T09:48:54;14.20;99.90
38090;DHT22;23904;52.322;10.232;2024-03-02T09:51:19;14.50;99.90
38090;DHT22;23904;52.322;10.232;2024-03-02T09:53:45;14.60;99.90
38090;DHT22;23904;52.322;10.232;2024-03-02T09:56:11;15.00;99.90
38090;DHT22;23904;52.322;10.232;2024-03-02T09:58:38;15.00;99.90
38090;DHT22;23904;52.322;10.232;2024-03-02T10:01:07;15.00;99.90
38090;DHT22;23904;52.322;10.232;2024-03-02T10:03:34;14.90;99.90
38090;DHT22;23904;52.322;10.232;2024-03-02T10:06:22;14.70;99.90
38090;DHT22;23904;52.322;10.232;2024-03-02T10:08:48;14.40;99.90
38090;DHT22;23904;52.322;10.232;2024-03-02T10:11:26;14.30;99.90
38090;DHT22;23904;52.322;10.232;2024-03-02T10:14:11;14.50;99.90
38090;DHT22;23904;52.322;10.232;2024-03-02T10:16:39;14.30;99.90
38090;DHT22;23904;52.322;10.232;2024-03-02T10:19:22;14.20;99.90
38090;DHT22;23904;52.322;10.232;2024-03-02T10:21:50;14.10;99.90
38090;DHT22;23904;52.322;10.232;2024-03-02T10:24:17;14.10;99.90
38090;DHT22;23904;52.322;10.232;2024-03-02T10:26:43;14.10;99.90
38090;DHT22;23904;52.322;10.232;2024-03-02T10:29:10;14.10;99.90
38090;DHT22;23904;52.322;10.232;2024-03-02T10:31:40;14.00;99.90
38090;DHT22;23904;52.322;10.232;2024-03-02T10:34:07;14.00;99.90
38090;DHT22;23904;52.322;10.232;2024-03-02T10:36:34;14.00;99.90
38090;DHT22;23904;52.322;10.232;2024-03-02T10:39:06;14.10;99.90
38090;DHT22;23904;52.322;10.232;2024-03-02T10:41:34;13.80;99.90
38090;DHT22;23904;52.322;10.232;2024-03-02T10:44:06;13.70;99.90
38090;DHT22;23904;52.322;10.232;2024-03-02T10:46:35;13.60;99.90
38090;DHT22;23904;52.322;10.232;2024-03-02T10:49:03;13.50;99.90
38090;DHT22;23904;52.322;10.232;2024-03-02T10:51:32;13.50;99.90
38090;DHT22;23904;52.322;10.232;2024-03-02T10:53:59;13.50;99.90
38090;DHT22;23904;52.322;10.232;2024-03-02T10:56:33;13.50;99.90
38090;DHT22;23904;52.322;10.232;2024-03-02T11:01:48;13.50;99.90
38090;DHT22;23904;52.322;10.232;2024-03-02T11:04:18;13.60;99.90
38090;DHT22;23904;52.322;10.232;2024-03-02T11:06:49;13.70;99.90
38090;DHT22;23904;52.322;10.232;2024-03-02T11:09:19;13.80;99.90
38090;DHT22;23904;52.322;10.232;2024-03-02T11:11:49;14.10;99.90
38090;DHT22;23904;52.322;10.232;2024-03-02T11:14:24;14.20;99.90
38090;DHT22;23904;52.322;10.232;2024-03-02T11:16:51;14.30;99.90
38090;DHT22;23904;52.322;10.232;2024-03-02T11:19:17;14.50;99.90
38090;DHT22;23904;52.322;10.232;2024-03-02T11:21:43;14.90;99.90
38090;DHT22;23904;52.322;10.232;2024-03-02T11:26:51;15.50;99.90
38090;DHT22;23904;52.322;10.232;2024-03-02T11:32:01;16.50;98.70
38090;DHT22;23904;52.322;10.232;2024-03-02T11:34:34;16.80;98.10
38090;DHT22;23904;52.322;10.232;2024-03-02T11:37:01;17.10;97.30
38090;DHT22;23904;52.322;10.232;2024-03-02T11:39:30;17.60;96.60
38090;DHT22;23904;52.322;10.232;2024-03-02T11:41:57;17.90;95.50
38090;DHT22;23904;52.322;10.232;2024-03-02T11:44:26;18.20;94.70
38090;DHT22;23904;52.322;10.232;2024-03-02T11:47:02;18.20;93.70
38090;DHT22;23904;52.322;10.232;2024-03-02T11:52:15;18.40;92.80
38090;DHT22;23904;52.322;10.232;2024-03-02T11:54:45;18.40;92.90
38090;DHT22;23904;52.322;10.232;2024-03-02T11:57:21;18.50;91.60
38090;DHT22;23904;52.322;10.232;2024-03-02T11:59:51;19.30;91.40
38090;DHT22;23904;52.322;10.232;2024-03-02T12:02:19;20.40;88.60
38090;DHT22;23904;52.322;10.232;2024-03-02T12:04:46;21.50;83.50
38090;DHT22;23904;52.322;10.232;2024-03-02T12:07:21;22.40;82.30
38090;DHT22;23904;52.322;10.232;2024-03-02T12:09:59;23.30;75.50
38090;DHT22;23904;52.322;10.232;2024-03-02T12:12:26;24.40;71.70
38090;DHT22;23904;52.322;10.232;2024-03-02T12:14:52;24.20;68.60
38090;DHT22;23904;52.322;10.232;2024-03-02T12:17:21;24.40;66.20
38090;DHT22;23904;52.322;10.232;2024-03-02T12:19:47;24.50;65.00
38090;DHT22;23904;52.322;10.232;2024-03-02T12:22:13;24.20;64.70
38090;DHT22;23904;52.322;10.232;2024-03-02T12:24:38;23.70;65.00
38090;DHT22;23904;52.322;10.232;2024-03-02T12:27:05;23.60;64.10
38090;DHT22;23904;52.322;10.232;2024-03-02T12:29:31;22.30;66.30
38090;DHT22;23904;52.322;10.232;2024-03-02T12:31:56;21.50;67.80
38090;DHT22;23904;52.322;10.232;2024-03-02T12:34:22;20.70;70.40
38090;DHT22;23904;52.322;10.232;2024-03-02T12:36:49;20.30;73.40
38090;DHT22;23904;52.322;10.232;2024-03-02T12:39:18;19.40;75.40
38090;DHT22;23904;52.322;10.232;2024-03-02T12:41:45;19.00;76.00
38090;DHT22;23904;52.322;10.232;2024-03-02T12:44:11;18.70;76.60
38090;DHT22;23904;52.322;10.232;2024-03-02T12:46:37;18.20;78.50
38090;DHT22;23904;52.322;10.232;2024-03-02T12:49:13;17.50;80.10
38090;DHT22;23904;52.322;10.232;2024-03-02T12:51:42;16.90;82.10
38090;DHT22;23904;52.322;10.232;2024-03-02T12:54:09;16.70;83.50
38090;DHT22;23904;52.322;10.232;2024-03-02T12:56:40;16.40;85.10
38090;DHT22;23904;52.322;10.232;2024-03-02T12:59:17;16.40;86.40
38090;DHT22;23904;52.322;10.232;2024-03-02T13:01:53;16.50;87.10
38090;DHT22;23904;52.322;10.232;2024-03-02T13:04:26;16.50;85.20
38090;DHT22;23904;52.322;10.232;2024-03-02T13:06:55;16.30;88.30
38090;DHT22;23904;52.322;10.232;2024-03-02T13:09:24;16.20;89.00
38090;DHT22;23904;52.322;10.232;2024-03-02T13:11:50;16.70;88.70
38090;DHT22;23904;52.322;10.232;2024-03-02T13:14:16;16.80;88.10
38090;DHT22;23904;52.322;10.232;2024-03-02T13:16:42;17.10;86.90
38090;DHT22;23904;52.322;10.232;2024-03-02T13:19:14;17.40;86.60
38090;DHT22;23904;52.322;10.232;2024-03-02T13:21:39;17.30;85.00
38090;DHT22;23904;52.322;10.232;2024-03-02T13:24:05;17.20;84.90
38090;DHT22;23904;52.322;10.232;2024-03-02T13:26:31;16.90;86.00
38090;DHT22;23904;52.322;10.232;2024-03-02T13:28:57;17.10;86.90
38090;DHT22;23904;52.322;10.232;2024-03-02T13:31:22;17.60;84.60
38090;DHT22;23904;52.322;10.232;2024-03-02T13:33:48;18.40;81.60
38090;DHT22;23904;52.322;10.232;2024-03-02T13:36:14;18.90;80.80
38090;DHT22;23904;52.322;10.232;2024-03-02T13:38:39;19.70;78.80
38090;DHT22;23904;52.322;10.232;2024-03-02T13:41:05;20.10;75.30
38090;DHT22;23904;52.322;10.232;2024-03-02T13:43:31;19.20;75.60
38090;DHT22;23904;52.322;10.232;2024-03-02T13:46:03;18.40;77.10
38090;DHT22;23904;52.322;10.232;2024-03-02T13:48:29;17.90;79.00
38090;DHT22;23904;52.322;10.232;2024-03-02T13:50:55;17.50;80.30
38090;DHT22;23904;52.322;10.232;2024-03-02T13:53:21;17.60;80.60
38090;DHT22;23904;52.322;10.232;2024-03-02T13:55:47;17.50;81.10
38090;DHT22;23904;52.322;10.232;2024-03-02T13:58:13;17.10;82.90
38090;DHT22;23904;52.322;10.232;2024-03-02T14:00:39;16.90;82.70
38090;DHT22;23904;52.322;10.232;2024-03-02T14:03:06;16.50;84.00
38090;DHT22;23904;52.322;10.232;2024-03-02T14:05:32;16.40;84.50
38090;DHT22;23904;52.322;10.232;2024-03-02T14:07:58;16.20;85.20
38090;DHT22;23904;52.322;10.232;2024-03-02T14:10:26;15.90;86.40
38090;DHT22;23904;52.322;10.232;2024-03-02T14:12:52;15.60;88.20
38090;DHT22;23904;52.322;10.232;2024-03-02T14:15:18;15.40;89.70
38090;DHT22;23904;52.322;10.232;2024-03-02T14:17:43;15.30;90.20
38090;DHT22;23904;52.322;10.232;2024-03-02T14:20:09;15.30;90.30
38090;DHT22;23904;52.322;10.232;2024-03-02T14:22:37;15.30;90.90
38090;DHT22;23904;52.322;10.232;2024-03-02T14:25:03;15.30;90.70
38090;DHT22;23904;52.322;10.232;2024-03-02T14:27:29;15.40;91.10
38090;DHT22;23904;52.322;10.232;2024-03-02T14:29:55;15.40;91.20
38090;DHT22;23904;52.322;10.232;2024-03-02T14:32:21;15.50;91.40
38090;DHT22;23904;52.322;10.232;2024-03-02T14:34:47;15.40;91.40
38090;DHT22;23904;52.322;10.232;2024-03-02T14:37:17;15.40;91.10
38090;DHT22;23904;52.322;10.232;2024-03-02T14:39:42;15.30;91.20
38090;DHT22;23904;52.322;10.232;2024-03-02T14:42:08;15.30;91.20
38090;DHT22;23904;52.322;10.232;2024-03-02T14:44:33;15.20;90.90
38090;DHT22;23904;52.322;10.232;2024-03-02T14:47:01;15.20;90.60
38090;DHT22;23904;52.322;10.232;2024-03-02T14:49:28;15.10;90.70
38090;DHT22;23904;52.322;10.232;2024-03-02T14:51:54;15.10;90.70
38090;DHT22;23904;52.322;10.232;2024-03-02T14:54:20;15.00;90.80
38090;DHT22;23904;52.322;10.232;2024-03-02T14:56:46;14.90;90.90
38090;DHT22;23904;52.322;10.232;2024-03-02T14:59:12;14.80;91.20
38090;DHT22;23904;52.322;10.232;2024-03-02T15:01:37;14.90;91.60
38090;DHT22;23904;52.322;10.232;2024-03-02T15:04:04;14.80;91.70
38090;DHT22;23904;52.322;10.232;2024-03-02T15:06:29;14.80;91.70
38090;DHT22;23904;52.322;10.232;2024-03-02T15:08:55;14.80;92.20
38090;DHT22;23904;52.322;10.232;2024-03-02T15:11:21;14.90;92.20
38090;DHT22;23904;52.322;10.232;2024-03-02T15:13:48;14.90;92.00
38090;DHT22;23904;52.322;10.232;2024-03-02T15:16:13;14.90;92.00
38090;DHT22;23904;52.322;10.232;2024-03-02T15:18:39;14.80;91.90
38090;DHT22;23904;52.322;10.232;2024-03-02T15:21:04;14.70;92.40
38090;DHT22;23904;52.322;10.232;2024-03-02T15:23:30;14.70;92.40
38090;DHT22;23904;52.322;10.232;2024-03-02T15:25:56;14.70;92.50
38090;DHT22;23904;52.322;10.232;2024-03-02T15:28:22;14.70;92.70
38090;DHT22;23904;52.322;10.232;2024-03-02T15:30:47;14.70;92.80
38090;DHT22;23904;52.322;10.232;2024-03-02T15:33:13;14.80;93.00
38090;DHT22;23904;52.322;10.232;2024-03-02T15:35:38;14.80;92.40